createdAt,value
2018-09-30T00:00:38.459Z,58.90
2018-09-30T00:03:06.081Z,59.60
2018-09-30T00:05:33.695Z,60.30
2018-09-30T00:08:01.354Z,61.40
2018-09-30T00:10:28.928Z,63.10
2018-09-30T00:12:56.595Z,61.10
2018-09-30T00:15:25.159Z,59.30
2018-09-30T00:17:52.943Z,58.30
2018-09-30T00:20:20.586Z,57.10
2018-09-30T00:22:48.235Z,57.50
2018-09-30T00:25:21.546Z,57.40
2018-09-30T00:27:49.111Z,57.50
2018-09-30T00:30:16.844Z,57.70
2018-09-30T00:32:44.455Z,58.00
2018-09-30T00:35:12.063Z,58.00
2018-09-30T00:37:39.741Z,58.30
2018-09-30T00:40:07.443Z,58.90
2018-09-30T00:42:35.050Z,58.80
2018-09-30T00:45:02.802Z,58.60
2018-09-30T00:47:30.401Z,58.40
2018-09-30T00:49:58.015Z,58.60
2018-09-30T00:52:25.530Z,58.50
2018-09-30T00:54:53.153Z,58.40
2018-09-30T00:57:20.843Z,58.50
2018-09-30T00:59:48.502Z,58.30
2018-09-30T01:02:16.075Z,57.70
2018-09-30T01:04:43.671Z,58.40
2018-09-30T01:07:11.223Z,59.00
2018-09-30T01:09:38.866Z,59.70
2018-09-30T01:12:06.566Z,59.50
2018-09-30T01:14:34.202Z,59.70
2018-09-30T01:17:01.775Z,60.50
2018-09-30T01:19:29.443Z,60.40
2018-09-30T01:21:57.083Z,59.80
2018-09-30T01:24:24.666Z,60.20
2018-09-30T01:26:52.282Z,60.00
2018-09-30T01:29:19.926Z,61.40
2018-09-30T01:31:47.687Z,61.90
2018-09-30T01:34:15.331Z,63.00
2018-09-30T01:36:42.915Z,63.00
2018-09-30T01:39:10.619Z,64.10
2018-09-30T01:41:38.208Z,64.30
2018-09-30T01:44:05.894Z,63.80
2018-09-30T01:46:33.515Z,63.60
2018-09-30T01:49:01.122Z,64.40
2018-09-30T01:51:28.741Z,64.00
2018-09-30T01:53:56.323Z,64.30
2018-09-30T01:56:23.960Z,64.70
2018-09-30T01:58:51.519Z,64.80
2018-09-30T02:01:19.151Z,65.90
2018-09-30T02:03:46.840Z,65.30
2018-09-30T02:06:14.512Z,64.60
2018-09-30T02:08:42.071Z,65.10
2018-09-30T02:11:09.683Z,65.30
2018-09-30T02:13:37.302Z,64.90
2018-09-30T02:16:05.020Z,65.50
2018-09-30T02:18:32.659Z,66.80
2018-09-30T02:21:00.287Z,67.40
2018-09-30T02:23:27.937Z,67.40
2018-09-30T02:25:55.578Z,68.10
2018-09-30T02:28:23.210Z,68.40
2018-09-30T02:30:50.850Z,69.20
2018-09-30T02:33:18.410Z,70.60
2018-09-30T02:35:46.123Z,70.90
2018-09-30T02:38:13.699Z,70.90
2018-09-30T02:40:41.379Z,72.10
2018-09-30T02:43:08.990Z,72.20
2018-09-30T02:45:36.591Z,71.70
2018-09-30T02:48:04.207Z,72.20
2018-09-30T02:50:31.858Z,70.80
2018-09-30T02:52:59.477Z,71.80
2018-09-30T02:55:27.155Z,73.30
2018-09-30T02:57:54.763Z,75.20
2018-09-30T03:00:22.430Z,77.20
2018-09-30T03:02:50.064Z,78.60
2018-09-30T03:05:17.685Z,77.60
2018-09-30T03:07:50.678Z,77.90
2018-09-30T03:10:18.289Z,76.80
2018-09-30T03:12:45.891Z,76.70
2018-09-30T03:15:13.519Z,76.60
2018-09-30T03:17:41.190Z,76.80
2018-09-30T03:20:08.835Z,76.50
2018-09-30T03:22:36.571Z,77.60
2018-09-30T03:25:04.247Z,77.30
2018-09-30T03:27:31.867Z,76.30
2018-09-30T03:29:59.523Z,78.50
2018-09-30T03:32:27.146Z,77.20
2018-09-30T03:34:54.750Z,76.30
2018-09-30T03:37:22.367Z,78.10
2018-09-30T03:39:49.963Z,78.60
2018-09-30T03:42:17.558Z,77.90
2018-09-30T03:44:45.118Z,77.80
2018-09-30T03:47:12.702Z,76.90
2018-09-30T03:49:40.301Z,77.10
2018-09-30T03:52:07.870Z,78.60
2018-09-30T03:54:35.444Z,79.90
2018-09-30T03:57:03.163Z,79.10
2018-09-30T03:59:30.711Z,79.40
2018-09-30T04:01:58.316Z,80.10
2018-09-30T04:04:26.099Z,80.20
2018-09-30T04:06:53.694Z,80.40
2018-09-30T04:09:21.268Z,81.10
2018-09-30T04:11:48.919Z,80.00
2018-09-30T04:14:16.568Z,80.40
2018-09-30T04:16:44.269Z,80.90
2018-09-30T04:19:11.785Z,80.90
2018-09-30T04:21:39.442Z,80.40
2018-09-30T04:24:10.663Z,80.50
2018-09-30T04:26:39.408Z,80.90
2018-09-30T04:29:07.287Z,81.30
2018-09-30T04:31:34.974Z,81.40
2018-09-30T04:34:03.122Z,81.00
2018-09-30T04:36:31.424Z,81.10
2018-09-30T04:38:59.087Z,81.20
2018-09-30T04:41:26.899Z,81.10
2018-09-30T04:43:54.514Z,81.80
2018-09-30T04:46:22.150Z,81.30
2018-09-30T04:48:49.755Z,82.30
2018-09-30T04:51:17.418Z,82.50
2018-09-30T04:53:45.027Z,82.90
2018-09-30T04:56:12.723Z,82.90
2018-09-30T04:58:40.245Z,83.20
2018-09-30T05:01:07.868Z,83.10
2018-09-30T05:03:35.547Z,83.00
2018-09-30T05:06:03.251Z,83.70
2018-09-30T05:08:30.915Z,83.50
2018-09-30T05:10:58.511Z,85.10
2018-09-30T05:13:26.103Z,84.50
2018-09-30T05:15:53.727Z,85.00
2018-09-30T05:18:21.363Z,85.40
2018-09-30T05:20:49.190Z,85.90
2018-09-30T05:23:16.830Z,85.70
2018-09-30T05:25:44.630Z,85.30
2018-09-30T05:28:12.162Z,85.30
2018-09-30T05:30:39.787Z,86.40
2018-09-30T05:33:07.399Z,86.70
2018-09-30T05:35:34.991Z,87.10
2018-09-30T05:38:02.617Z,88.00
2018-09-30T05:40:30.170Z,89.00
2018-09-30T05:42:57.722Z,88.90
2018-09-30T05:45:25.315Z,89.20
2018-09-30T05:47:52.912Z,89.00
2018-09-30T05:50:20.670Z,88.90
2018-09-30T05:52:48.338Z,90.00
2018-09-30T05:55:15.935Z,90.20
2018-09-30T05:57:43.698Z,90.10
2018-09-30T06:00:11.199Z,89.70
2018-09-30T06:02:38.800Z,89.50
2018-09-30T06:05:06.498Z,88.20
2018-09-30T06:07:34.174Z,88.20
2018-09-30T06:10:01.868Z,89.30
2018-09-30T06:12:29.650Z,89.40
2018-09-30T06:14:57.387Z,89.70
2018-09-30T06:17:25.139Z,89.30
2018-09-30T06:19:52.800Z,89.00
2018-09-30T06:22:20.484Z,88.80
2018-09-30T06:24:48.091Z,88.80
2018-09-30T06:27:15.781Z,89.70
2018-09-30T06:29:43.356Z,88.30
2018-09-30T06:32:11.077Z,87.10
2018-09-30T06:34:38.639Z,84.70
2018-09-30T06:37:06.332Z,84.10
2018-09-30T06:39:33.927Z,81.50
2018-09-30T06:42:01.619Z,81.30
2018-09-30T06:44:29.237Z,82.30
2018-09-30T06:46:56.950Z,82.10
2018-09-30T06:49:24.582Z,82.40
2018-09-30T06:51:52.178Z,82.70
2018-09-30T06:54:19.780Z,83.50
2018-09-30T06:56:47.559Z,83.60
2018-09-30T06:59:15.181Z,82.50
2018-09-30T07:01:42.986Z,82.70
2018-09-30T07:04:10.642Z,82.70
2018-09-30T07:06:38.495Z,82.10
2018-09-30T07:09:07.074Z,80.40
2018-09-30T07:11:34.763Z,79.20
2018-09-30T07:14:02.471Z,78.40
2018-09-30T07:16:30.105Z,77.50
2018-09-30T07:18:57.943Z,74.00
2018-09-30T07:21:25.621Z,61.70
2018-09-30T07:23:53.283Z,52.30
2018-09-30T07:26:20.935Z,45.70
2018-09-30T07:28:48.535Z,40.90
2018-09-30T07:31:16.150Z,37.70
2018-09-30T07:33:43.887Z,36.20
2018-09-30T07:36:11.542Z,34.20
2018-09-30T07:38:39.194Z,31.30
2018-09-30T07:41:06.871Z,30.00
2018-09-30T07:43:34.661Z,30.00
2018-09-30T07:46:02.380Z,29.20
2018-09-30T07:48:30.011Z,27.90
2018-09-30T07:50:57.598Z,27.30
2018-09-30T07:53:25.259Z,27.70
2018-09-30T07:55:52.903Z,27.00
2018-09-30T07:58:20.540Z,27.10
2018-09-30T08:00:48.104Z,27.50
2018-09-30T08:03:15.746Z,26.50
2018-09-30T08:05:43.514Z,26.00
2018-09-30T08:08:11.177Z,25.60
2018-09-30T08:10:38.788Z,26.20
2018-09-30T08:13:06.835Z,25.90
2018-09-30T08:15:34.467Z,25.50
2018-09-30T08:18:02.139Z,24.50
2018-09-30T08:20:29.775Z,23.50
2018-09-30T08:22:57.387Z,23.30
2018-09-30T08:25:25.067Z,23.40
2018-09-30T08:27:52.658Z,23.80
2018-09-30T08:30:20.310Z,23.80
2018-09-30T08:32:48.427Z,24.20
2018-09-30T08:35:16.225Z,24.70
2018-09-30T08:37:49.531Z,24.40
2018-09-30T08:41:20.771Z,24.10
2018-09-30T08:43:48.515Z,24.30
2018-09-30T08:46:16.086Z,26.80
2018-09-30T08:48:43.652Z,26.40
2018-09-30T08:51:11.437Z,26.20
2018-09-30T08:53:39.183Z,26.60
2018-09-30T08:56:06.979Z,26.70
2018-09-30T08:58:34.684Z,26.30
2018-09-30T09:01:02.866Z,26.40
2018-09-30T09:03:30.623Z,26.20
2018-09-30T09:05:58.250Z,26.80
2018-09-30T09:08:26.007Z,26.30
2018-09-30T09:10:53.702Z,26.30
2018-09-30T09:13:21.349Z,28.00
2018-09-30T09:15:49.097Z,27.50
2018-09-30T09:18:16.693Z,27.10
2018-09-30T09:20:44.395Z,27.60
2018-09-30T09:23:12.122Z,28.20
2018-09-30T09:25:40.474Z,28.10
2018-09-30T09:28:08.273Z,27.90
2018-09-30T09:30:35.985Z,27.40
2018-09-30T09:33:03.787Z,27.30
2018-09-30T09:35:31.466Z,27.40
2018-09-30T09:37:59.066Z,27.70
2018-09-30T09:40:26.635Z,27.20
2018-09-30T09:42:54.198Z,26.50
2018-09-30T09:45:21.906Z,27.10
2018-09-30T09:47:49.508Z,27.10
2018-09-30T09:50:17.314Z,27.90
2018-09-30T09:52:44.987Z,27.90
2018-09-30T09:55:12.763Z,27.90
2018-09-30T09:57:40.439Z,27.00
2018-09-30T10:00:08.724Z,26.50
2018-09-30T10:02:36.434Z,26.50
2018-09-30T10:05:04.368Z,26.80
2018-09-30T10:07:31.963Z,26.00
2018-09-30T10:09:59.657Z,26.00
2018-09-30T10:12:27.288Z,25.40
2018-09-30T10:14:54.930Z,24.80
2018-09-30T10:17:22.609Z,25.60
2018-09-30T10:19:50.264Z,26.70
2018-09-30T10:22:17.881Z,27.00
2018-09-30T10:24:45.587Z,26.40
2018-09-30T10:27:13.556Z,25.70
2018-09-30T10:29:41.127Z,25.80
2018-09-30T10:32:08.775Z,26.90
2018-09-30T10:34:37.264Z,28.00
2018-09-30T10:37:04.946Z,28.40
2018-09-30T10:39:32.574Z,28.00
2018-09-30T10:42:00.183Z,28.20
2018-09-30T10:44:27.827Z,27.90
2018-09-30T10:46:55.612Z,28.60
2018-09-30T10:49:23.257Z,29.00
2018-09-30T10:51:50.955Z,27.50
2018-09-30T10:54:18.546Z,27.40
2018-09-30T10:56:46.277Z,28.00
2018-09-30T10:59:13.919Z,29.00
2018-09-30T11:01:41.526Z,28.90
2018-09-30T11:04:09.180Z,29.00
2018-09-30T11:06:36.884Z,28.80
2018-09-30T11:09:05.584Z,28.10
2018-09-30T11:11:33.206Z,28.20
2018-09-30T11:14:00.918Z,29.10
2018-09-30T11:16:28.659Z,28.30
2018-09-30T11:18:56.282Z,27.90
2018-09-30T11:21:23.883Z,27.50
2018-09-30T11:23:51.471Z,28.10
2018-09-30T11:26:19.223Z,28.60
2018-09-30T11:28:46.856Z,28.30
2018-09-30T11:31:14.540Z,27.30
2018-09-30T11:33:42.168Z,27.50
2018-09-30T11:36:09.867Z,27.40
2018-09-30T11:38:37.555Z,28.70
2018-09-30T11:41:05.215Z,28.90
2018-09-30T11:43:32.871Z,28.70
2018-09-30T11:46:00.555Z,28.90
2018-09-30T11:48:28.227Z,29.80
2018-09-30T11:50:55.973Z,30.10
2018-09-30T11:53:24.286Z,30.30
2018-09-30T11:55:52.108Z,30.40
2018-09-30T11:58:19.690Z,30.30
2018-09-30T12:00:47.390Z,29.30
2018-09-30T12:03:14.999Z,28.70
2018-09-30T12:05:42.722Z,29.00
2018-09-30T12:08:10.299Z,27.80
2018-09-30T12:10:37.927Z,27.70
2018-09-30T12:13:05.578Z,28.50
2018-09-30T12:15:33.258Z,28.20
2018-09-30T12:18:00.985Z,28.20
2018-09-30T12:20:28.679Z,28.00
